Terminal Aerodrome Forecast
Issued by NWS Jackson, MS

Home | Current Version | Previous Version | Text Only | Print | Product List | Glossary On
Versions: 1 2 3 4 5 6 7 8 9 10 11 12 13
000
FTUS44 KJAN 211720
TAFMEI
TAF
KMEI 211720Z 2118/2218 16010KT P6SM SCT100
     FM220900 18012KT P6SM OVC020
     FM221200 17012KT P6SM OVC015
     FM221400 19013G18KT P6SM OVC007
     FM221600 20015G18KT P6SM OVC015=

USA.gov is the U.S. government's official web portal to all federal, state and local government web resources and services.